Time;durP1;ratioP1;P1;durP2;ratioP2;P2;SDS_P1;SDS_P2;PMS_P1;PMS_P2;Temp;Humidity;BMP_temperature;BMP_pressure;BME280_temperature;BME280_humidity;BME280_pressure;Samples;Min_cycle;Max_cycle;Signal;HPM_P1;HPM_P2
2024/01/23 00:00:09;;;;;;;13.43;3.17;;;9.40;91.20;;;10.80;59.93;100951.75;3080890;46;20457;-74
2024/01/23 00:02:37;;;;;;;10.97;3.53;;;9.40;91.30;;;10.79;60.11;100957.22;3081343;46;20467;-74
2024/01/23 00:05:06;;;;;;;15.23;3.20;;;9.30;91.30;;;10.77;60.06;100962.63;3081020;46;20434;-74
2024/01/23 00:07:34;;;;;;;13.73;3.90;;;9.30;91.30;;;10.76;60.05;100954.91;3080616;46;20474;-75
2024/01/23 00:10:04;;;;;;;12.87;3.33;;;9.30;91.30;;;10.74;59.99;100952.44;3081121;46;20577;-74
2024/01/23 00:12:32;;;;;;;14.83;4.23;;;9.30;91.30;;;10.72;59.92;100941.25;3080888;46;20459;-74
2024/01/23 00:15:00;;;;;;;18.03;4.40;;;9.30;91.40;;;10.70;59.94;100943.25;3080845;46;21100;-74
2024/01/23 00:17:29;;;;;;;10.57;3.33;;;9.20;91.30;;;10.69;60.01;100944.25;3079599;46;20491;-74
2024/01/23 00:19:58;;;;;;;13.53;3.40;;;9.20;91.60;;;10.65;59.86;100958.72;3080253;46;20426;-75
2024/01/23 00:22:26;;;;;;;11.63;3.00;;;9.20;91.30;;;10.66;59.92;100962.19;3080834;46;20451;-75
2024/01/23 00:24:54;;;;;;;11.37;3.03;;;9.20;91.20;;;10.64;60.02;100957.09;3081230;46;20453;-74
2024/01/23 00:27:23;;;;;;;15.63;3.57;;;9.20;91.30;;;10.68;59.86;100957.56;3082842;46;20576;-76
2024/01/23 00:29:51;;;;;;;14.47;3.07;;;9.20;91.30;;;10.68;59.69;100965.47;3083486;46;20452;-75
2024/01/23 00:32:20;;;;;;;9.70;2.90;;;9.20;91.20;;;10.70;59.65;100960.84;3083458;46;20485;-74
2024/01/23 00:34:48;;;;;;;15.17;3.30;;;9.20;91.20;;;10.71;59.56;100973.84;3083324;46;20466;-74
2024/01/23 00:37:16;;;;;;;12.83;4.00;;;9.20;91.10;;;10.73;59.38;100969.22;3083013;46;20450;-75
2024/01/23 00:39:45;;;;;;;9.87;2.93;;;9.20;91.10;;;10.76;59.39;101007.56;3083239;46;21006;-75
2024/01/23 00:42:13;;;;;;;15.00;2.90;;;9.20;91.00;;;10.80;59.28;101078.13;3083100;46;20452;-75
2024/01/23 00:44:43;;;;;;;6.30;1.77;;;9.20;91.00;;;10.76;58.43;101068.94;3083243;46;20459;-74
2024/01/23 00:47:13;;;;;;;7.77;2.13;;;9.20;90.70;;;10.59;58.58;101051.53;3083426;46;20442;-75
2024/01/23 00:49:41;;;;;;;5.03;1.60;;;9.10;90.50;;;10.42;58.46;101063.03;3083491;46;20459;-75
2024/01/23 00:52:09;;;;;;;6.37;1.60;;;9.00;90.30;;;10.21;58.58;101049.56;3083126;46;20476;-75
2024/01/23 00:54:38;;;;;;;4.23;1.40;;;8.80;90.30;;;10.07;58.71;101047.56;3082564;46;20456;-75
2024/01/23 00:57:06;;;;;;;4.30;1.30;;;8.70;90.40;;;9.93;59.36;101040.31;3082669;46;20431;-75
2024/01/23 00:59:34;;;;;;;6.20;1.30;;;8.60;90.40;;;9.83;59.62;101050.16;3083242;46;20434;-74
2024/01/23 01:02:03;;;;;;;3.57;1.43;;;8.50;90.60;;;9.77;59.75;101040.31;3082990;46;20426;-74
2024/01/23 01:04:32;;;;;;;3.83;1.40;;;8.40;90.80;;;9.73;59.85;101060.00;3082970;46;20457;-75
2024/01/23 01:07:00;;;;;;;3.73;1.40;;;8.30;91.10;;;9.69;60.03;101054.25;3082808;46;20425;-75
2024/01/23 01:09:28;;;;;;;4.20;1.10;;;8.20;91.30;;;9.67;60.16;101060.66;3083049;46;21007;-75
2024/01/23 01:11:57;;;;;;;6.87;1.53;;;8.20;91.40;;;9.65;60.35;101070.50;3082752;46;20487;-74
2024/01/23 01:14:26;;;;;;;8.47;2.10;;;8.10;91.60;;;9.64;60.33;101056.53;3082856;46;20440;-73
2024/01/23 01:16:54;;;;;;;9.53;2.33;;;8.10;91.70;;;9.63;60.79;101070.63;3082631;46;20426;-74
2024/01/23 01:19:22;;;;;;;9.23;2.17;;;8.10;91.90;;;9.65;61.01;101078.38;3082669;46;21198;-74
2024/01/23 01:21:51;;;;;;;14.90;2.33;;;8.10;92.00;;;9.69;60.96;101069.19;3083039;46;21070;-75
2024/01/23 01:24:20;;;;;;;8.50;2.57;;;8.10;92.10;;;9.73;61.05;101073.13;3082723;46;20519;-74
2024/01/23 01:26:48;;;;;;;10.47;2.43;;;8.20;92.20;;;9.79;61.40;101077.75;3082791;46;20456;-74
2024/01/23 01:29:16;;;;;;;8.00;2.43;;;8.20;92.30;;;9.85;61.34;101075.31;3082836;46;20427;-74
2024/01/23 01:31:45;;;;;;;11.60;2.70;;;8.20;92.30;;;9.93;61.32;101100.78;3082536;46;20430;-74
2024/01/23 01:34:14;;;;;;;16.20;2.90;;;8.30;92.30;;;10.01;61.19;101090.28;3082986;46;20431;-74
2024/01/23 01:36:43;;;;;;;12.03;2.80;;;8.30;92.20;;;10.09;61.04;101088.50;3081831;46;20431;-75
2024/01/23 01:39:13;;;;;;;11.20;2.60;;;8.40;92.20;;;10.17;60.87;101095.59;3082105;46;21030;-73
2024/01/23 01:41:41;;;;;;;10.07;2.80;;;8.50;92.10;;;10.23;60.66;101094.13;3082844;46;20458;-74
2024/01/23 01:44:09;;;;;;;12.50;3.30;;;8.50;91.90;;;10.28;60.72;101097.91;3082757;46;20431;-74
2024/01/23 01:46:39;;;;;;;12.63;2.67;;;8.60;91.90;;;10.33;60.46;101097.41;3082297;46;20579;-75
2024/01/23 01:49:07;;;;;;;13.57;3.17;;;8.70;91.80;;;10.34;60.28;101097.25;3082205;46;20971;-75
2024/01/23 01:51:37;;;;;;;12.90;2.70;;;8.70;91.70;;;10.36;60.32;101105.81;3081646;46;20444;-74
2024/01/23 01:54:07;;;;;;;10.40;3.10;;;8.70;91.50;;;10.37;59.69;101094.28;3082284;46;20428;-74
2024/01/23 01:56:36;;;;;;;13.83;3.03;;;8.80;91.30;;;10.42;59.92;101094.63;3082244;46;20438;-74
2024/01/23 01:59:04;;;;;;;13.57;3.43;;;8.80;91.30;;;10.47;59.46;101108.13;3082277;46;20570;-74
2024/01/23 02:01:33;;;;;;;14.80;3.60;;;8.80;90.90;;;10.51;58.85;101096.25;3082454;46;21079;-74
2024/01/23 02:04:01;;;;;;;11.53;3.17;;;8.80;90.80;;;10.53;58.92;101091.66;3081626;46;20438;-74
2024/01/23 02:06:32;;;;;;;11.03;2.77;;;8.90;90.80;;;10.57;58.81;101107.94;3081897;46;20491;-75
2024/01/23 02:09:01;;;;;;;14.60;3.07;;;8.90;90.70;;;10.60;58.63;101107.63;3081485;46;20591;-75
2024/01/23 02:11:29;;;;;;;11.50;3.50;;;8.90;90.70;;;10.64;58.59;101117.66;3082046;46;20450;-74
2024/01/23 02:13:57;;;;;;;10.63;3.50;;;9.00;90.70;;;10.67;58.30;101112.03;3082329;46;20466;-75
2024/01/23 02:16:26;;;;;;;12.30;2.73;;;9.00;90.40;;;10.69;58.03;101125.06;3082325;46;20953;-75
2024/01/23 02:18:54;;;;;;;11.20;3.47;;;9.00;90.30;;;10.71;57.97;101123.06;3082035;46;20496;-74
2024/01/23 02:21:23;;;;;;;8.97;2.70;;;9.00;90.20;;;10.72;57.78;101130.00;3082143;46;21119;-74
2024/01/23 02:23:51;;;;;;;12.97;3.30;;;9.10;90.10;;;10.71;57.54;101129.16;3081940;46;20451;-77
2024/01/23 02:26:19;;;;;;;17.50;3.43;;;9.10;90.10;;;10.74;57.64;101133.28;3082261;46;20449;-74
2024/01/23 02:28:48;;;;;;;10.47;2.80;;;9.10;90.00;;;10.74;57.37;101134.06;3082160;46;21075;-75
2024/01/23 02:31:16;;;;;;;15.60;3.40;;;9.10;89.90;;;10.76;57.18;101150.56;3082547;46;20569;-74
2024/01/23 02:33:44;;;;;;;13.07;2.93;;;9.10;89.70;;;10.78;57.15;101138.03;3082429;46;20423;-74
2024/01/23 02:36:13;;;;;;;12.27;4.00;;;9.10;89.50;;;10.80;56.92;101141.31;3082197;46;20486;-75
2024/01/23 02:38:41;;;;;;;14.50;3.47;;;9.10;89.40;;;10.81;57.27;101143.00;3081373;46;20488;-75
2024/01/23 02:41:11;;;;;;;9.47;2.53;;;9.20;89.50;;;10.82;56.95;101144.63;3082129;46;20451;-74
2024/01/23 02:43:39;;;;;;;10.47;3.03;;;9.20;89.60;;;10.84;56.96;101147.91;3081766;46;20432;-74
2024/01/23 02:46:08;;;;;;;13.87;3.23;;;9.20;89.40;;;10.84;56.63;101158.44;3081837;46;20545;-75
2024/01/23 02:48:36;;;;;;;10.10;3.00;;;9.20;89.00;;;10.84;56.76;101168.97;3081127;46;20446;-74
2024/01/23 02:51:05;;;;;;;9.47;3.10;;;9.20;89.00;;;10.86;56.72;101156.44;3081852;46;20488;-74
2024/01/23 02:53:33;;;;;;;10.87;2.87;;;9.20;88.90;;;10.87;56.65;101166.00;3081738;46;20445;-75
2024/01/23 02:56:02;;;;;;;14.67;2.53;;;9.20;88.80;;;10.88;56.61;101172.94;3081979;46;20564;-74
2024/01/23 02:58:30;;;;;;;13.37;3.17;;;9.20;88.70;;;10.88;56.33;101154.50;3081307;46;20469;-74
2024/01/23 03:00:59;;;;;;;8.53;2.67;;;9.20;88.40;;;10.88;56.24;101177.38;3082005;46;20458;-74
2024/01/23 03:03:27;;;;;;;10.70;3.23;;;9.20;88.30;;;10.87;56.25;101166.00;3081805;46;20532;-74
2024/01/23 03:05:55;;;;;;;13.30;3.30;;;9.20;88.10;;;10.87;56.27;101173.91;3081897;46;20431;-75
2024/01/23 03:08:24;;;;;;;14.80;2.93;;;9.20;88.20;;;10.87;56.25;101171.28;3081216;46;20440;-74
2024/01/23 03:10:52;;;;;;;14.73;3.60;;;9.20;88.20;;;10.87;56.08;101178.34;3081655;46;21099;-74
2024/01/23 03:13:21;;;;;;;9.47;2.67;;;9.20;88.00;;;10.88;56.08;101190.53;3081623;46;20434;-74
2024/01/23 03:15:52;;;;;;;13.17;2.83;;;9.20;88.00;;;10.89;56.18;101206.16;3081720;46;20467;-74
2024/01/23 03:18:20;;;;;;;10.50;3.23;;;9.20;88.10;;;10.89;55.95;101198.25;3081376;46;20468;-74
2024/01/23 03:20:49;;;;;;;13.80;2.90;;;9.20;87.90;;;10.89;56.06;101208.78;3081705;46;20434;-74
2024/01/23 03:23:17;;;;;;;8.00;2.57;;;9.20;88.00;;;10.89;56.13;101206.16;3081148;46;20537;-74
2024/01/23 03:25:46;;;;;;;16.13;3.33;;;9.20;88.00;;;10.92;55.90;101209.44;3081528;46;20463;-73
2024/01/23 03:28:14;;;;;;;13.47;3.43;;;9.30;88.60;;;10.92;55.94;101214.72;3081055;46;20574;-74
2024/01/23 03:30:42;;;;;;;11.27;3.63;;;9.20;87.60;;;10.92;55.93;101225.25;3081918;46;20435;-74
2024/01/23 03:33:12;;;;;;;10.53;3.20;;;9.20;87.70;;;10.94;56.00;101231.16;3081685;46;21020;-74
2024/01/23 03:35:40;;;;;;;8.77;3.37;;;9.30;88.00;;;10.95;55.97;101238.09;3081261;46;20461;-78
2024/01/23 03:38:09;;;;;;;14.07;3.40;;;9.30;88.00;;;10.95;55.80;101248.63;3080923;46;20537;-74
2024/01/23 03:40:38;;;;;;;17.10;4.10;;;9.30;87.90;;;10.94;55.96;101247.81;3081610;46;20562;-75
2024/01/23 03:43:07;;;;;;;9.07;3.27;;;9.30;87.90;;;10.96;55.77;101245.03;3081431;46;20434;-74
2024/01/23 03:45:35;;;;;;;13.03;3.63;;;9.30;87.80;;;10.95;55.76;101248.63;3081191;46;20517;-75
2024/01/23 03:48:04;;;;;;;12.23;3.77;;;9.30;87.70;;;10.94;55.61;101252.22;3080934;46;21173;-74
2024/01/23 03:50:33;;;;;;;14.37;3.47;;;9.30;87.50;;;10.93;55.76;101248.81;3081379;46;20656;-74
2024/01/23 03:53:01;;;;;;;13.17;3.47;;;9.30;87.70;;;10.94;55.89;101249.59;3080949;46;20569;-74
2024/01/23 03:55:30;;;;;;;15.60;3.20;;;9.30;87.70;;;10.94;55.91;101268.88;3080877;46;20444;-74
2024/01/23 03:57:58;;;;;;;15.67;3.47;;;9.30;87.80;;;10.94;55.92;101268.03;3080711;46;20561;-75
2024/01/23 04:00:28;;;;;;;12.00;3.67;;;9.30;87.70;;;10.92;55.77;101264.75;3080896;46;20550;-75
2024/01/23 04:02:57;;;;;;;10.43;3.00;;;9.30;87.70;;;10.92;55.91;101272.66;3081025;46;20427;-74
2024/01/23 04:05:25;;;;;;;17.20;3.53;;;9.30;87.60;;;10.92;55.80;101288.44;3081301;46;20431;-75
2024/01/23 04:07:54;;;;;;;12.67;3.50;;;9.30;87.60;;;10.89;55.90;101281.69;3080655;46;20440;-74
2024/01/23 04:10:22;;;;;;;14.73;3.43;;;9.30;87.70;;;10.89;55.60;101293.06;3081042;46;20431;-75
2024/01/23 04:12:50;;;;;;;14.53;3.83;;;9.30;87.70;;;10.90;55.95;101288.63;3081339;46;20565;-75
2024/01/23 04:15:19;;;;;;;13.70;4.03;;;9.30;87.70;;;10.87;56.01;101295.03;3080813;46;21033;-74
2024/01/23 04:17:47;;;;;;;15.07;3.57;;;9.30;87.70;;;10.88;56.12;101294.06;3080484;46;20572;-75
2024/01/23 04:20:16;;;;;;;18.10;4.07;;;9.30;87.90;;;10.89;56.10;101306.22;3081220;46;20676;-74
2024/01/23 04:22:44;;;;;;;13.87;3.97;;;9.30;87.90;;;10.92;56.17;101314.78;3081068;46;20428;-75
2024/01/23 04:25:13;;;;;;;15.37;3.93;;;9.30;88.00;;;10.92;55.87;101322.69;3081189;46;20430;-75
2024/01/23 04:27:41;;;;;;;18.80;3.80;;;9.30;88.10;;;10.91;56.00;101311.31;3080766;46;20442;-74
2024/01/23 04:30:10;;;;;;;15.50;4.23;;;9.30;88.10;;;10.92;56.01;101312.16;3081050;46;20454;-74
2024/01/23 04:32:39;;;;;;;16.73;3.90;;;9.30;88.90;;;10.91;55.89;101321.84;3080961;46;21166;-74
2024/01/23 04:35:07;;;;;;;10.63;3.97;;;9.30;88.00;;;10.87;55.62;101329.28;3080839;46;20443;-74
2024/01/23 04:37:36;;;;;;;20.53;4.37;;;9.30;87.90;;;10.88;55.94;101320.41;3080634;46;20505;-75
2024/01/23 04:40:07;;;;;;;18.90;3.57;;;9.30;88.00;;;10.88;56.12;101333.56;3080960;46;20488;-74
2024/01/23 04:42:36;;;;;;;10.20;2.93;;;9.30;88.00;;;10.89;56.10;101340.47;3081012;46;20524;-74
2024/01/23 04:45:08;;;;;;;12.27;3.50;;;9.30;88.10;;;10.91;55.94;101355.28;3080345;46;20442;-74
2024/01/23 04:47:37;;;;;;;12.57;3.50;;;9.20;88.00;;;10.89;56.07;101345.72;3080403;46;20681;-75
2024/01/23 04:50:06;;;;;;;17.90;4.07;;;9.20;88.00;;;10.89;56.03;101361.53;3080791;46;20430;-74
2024/01/23 04:52:35;;;;;;;15.60;3.87;;;9.20;87.90;;;10.89;56.09;101366.78;3080715;46;20471;-74
2024/01/23 04:55:05;;;;;;;12.17;3.80;;;9.20;88.00;;;10.89;55.75;101393.13;3080540;46;20428;-74
2024/01/23 04:57:33;;;;;;;17.40;4.27;;;9.30;87.80;;;10.88;55.93;101391.50;3080160;46;20573;-74
2024/01/23 05:00:04;;;;;;;14.80;3.53;;;9.20;87.70;;;10.89;56.06;101408.09;3080185;46;21091;-74
2024/01/23 05:02:33;;;;;;;15.17;3.73;;;9.30;87.90;;;10.88;55.97;101402.03;3080531;46;20513;-74
2024/01/23 05:05:01;;;;;;;9.93;3.93;;;9.30;87.90;;;10.89;55.94;101414.19;3080697;46;21189;-74
2024/01/23 05:07:29;;;;;;;22.87;5.10;;;9.30;88.00;;;10.91;56.02;101405.31;3080234;46;20451;-74
2024/01/23 05:09:58;;;;;;;9.97;4.43;;;9.30;87.90;;;10.88;56.11;101407.31;3080219;46;20538;-74
2024/01/23 05:12:26;;;;;;;15.63;3.83;;;9.20;87.80;;;10.89;55.96;101419.47;3081128;46;20577;-75
2024/01/23 05:14:55;;;;;;;14.90;3.83;;;9.20;87.80;;;10.89;56.08;101408.94;3082705;46;20537;-74
2024/01/23 05:17:23;;;;;;;10.57;3.93;;;9.20;87.90;;;10.91;55.90;101421.13;3082543;46;20438;-74
2024/01/23 05:19:52;;;;;;;16.70;4.53;;;9.20;87.80;;;10.89;56.07;101422.09;3083717;46;20500;-74
2024/01/23 05:22:20;;;;;;;20.53;4.47;;;9.20;87.80;;;10.91;56.13;101427.19;3083454;46;20439;-74
2024/01/23 05:24:49;;;;;;;18.17;4.07;;;9.20;87.80;;;10.92;55.88;101428.03;3082680;46;20563;-74
2024/01/23 05:27:17;;;;;;;18.33;5.30;;;9.20;87.80;;;10.92;55.76;101439.41;3082261;46;20483;-74
2024/01/23 05:29:45;;;;;;;15.37;4.60;;;9.30;87.90;;;10.91;55.88;101453.53;3082973;46;20432;-74
2024/01/23 05:32:14;;;;;;;14.17;4.20;;;9.30;87.80;;;10.92;56.05;101459.63;3082682;46;20438;-73
2024/01/23 05:34:42;;;;;;;17.43;5.30;;;9.30;87.90;;;10.92;56.01;101475.44;3082523;46;20549;-74
2024/01/23 05:37:12;;;;;;;13.50;3.77;;;9.30;87.90;;;10.92;55.83;101455.19;3082220;46;20489;-74
2024/01/23 05:39:40;;;;;;;16.07;3.67;;;9.30;88.10;;;10.93;56.18;101456.03;3082325;46;20428;-74
2024/01/23 05:42:08;;;;;;;16.00;4.57;;;9.30;88.30;;;10.95;56.15;101467.22;3083153;46;20429;-74
2024/01/23 05:44:37;;;;;;;22.90;5.07;;;9.30;88.30;;;10.97;56.15;101467.88;3082130;46;20536;-74
2024/01/23 05:47:08;;;;;;;10.80;4.27;;;9.30;88.40;;;10.97;56.34;101489.78;3082360;46;20480;-74
2024/01/23 05:49:36;;;;;;;17.93;4.00;;;9.30;88.50;;;10.98;56.16;101485.34;3082577;46;20504;-75
2024/01/23 05:52:05;;;;;;;17.60;4.50;;;9.30;89.30;;;11.00;56.26;101501.81;3081807;46;20431;-74
2024/01/23 05:54:34;;;;;;;18.00;4.33;;;9.30;88.50;;;11.01;56.25;101495.53;3082146;46;20687;-74
2024/01/23 05:57:02;;;;;;;19.27;4.73;;;9.30;88.60;;;11.02;56.31;101502.47;3082029;46;20441;-74
2024/01/23 05:59:31;;;;;;;23.17;4.60;;;9.30;88.60;;;11.01;56.43;101511.34;3082131;46;20925;-74
2024/01/23 06:01:59;;;;;;;21.00;5.00;;;9.40;88.90;;;11.00;56.43;101520.25;3082320;46;20500;-74
2024/01/23 06:04:27;;;;;;;12.67;4.40;;;9.40;89.10;;;11.00;56.57;101530.78;3082144;46;20475;-74
2024/01/23 06:06:56;;;;;;;19.23;5.23;;;9.40;89.20;;;11.01;56.54;101542.97;3081871;46;21078;-74
2024/01/23 06:09:25;;;;;;;13.70;4.13;;;9.30;89.30;;;11.01;56.72;101548.22;3082271;46;20468;-74
2024/01/23 06:11:53;;;;;;;13.97;3.60;;;9.40;89.40;;;11.02;56.89;101550.72;3081809;46;20423;-75
2024/01/23 06:14:21;;;;;;;18.40;4.37;;;9.40;89.50;;;11.04;56.96;101547.91;3081755;46;20577;-74
2024/01/23 06:16:50;;;;;;;25.63;5.83;;;9.40;89.60;;;11.03;56.86;101556.81;3081798;46;20440;-74
2024/01/23 06:19:18;;;;;;;23.80;5.30;;;9.40;89.60;;;11.03;57.17;101564.72;3081411;46;20505;-75
2024/01/23 06:21:47;;;;;;;18.63;4.67;;;9.40;89.50;;;11.03;57.00;101562.09;3082055;46;20908;-74
2024/01/23 06:24:15;;;;;;;19.80;4.20;;;9.40;89.50;;;11.04;56.92;101584.78;3081991;46;20557;-74
2024/01/23 06:26:44;;;;;;;23.23;6.17;;;9.40;89.60;;;11.04;57.16;101585.63;3081792;46;20438;-74
2024/01/23 06:29:12;;;;;;;14.97;4.47;;;9.40;89.90;;;11.05;57.15;101597.00;3080793;46;20600;-74
2024/01/23 06:31:41;;;;;;;14.30;4.77;;;9.40;90.00;;;11.04;57.21;101595.34;3081604;46;20504;-73
2024/01/23 06:34:10;;;;;;;17.43;5.23;;;9.40;90.00;;;11.04;57.34;101600.59;3081966;46;21101;-74
2024/01/23 06:36:38;;;;;;;23.20;4.87;;;9.40;90.20;;;11.04;57.21;101605.88;3081735;46;20963;-74
2024/01/23 06:39:08;;;;;;;20.93;5.50;;;9.40;90.20;;;11.02;57.63;101606.03;3081561;46;20440;-75
2024/01/23 06:41:36;;;;;;;16.10;4.60;;;9.40;90.30;;;11.01;57.63;101609.66;3082138;46;20440;-74
2024/01/23 06:44:04;;;;;;;21.30;5.03;;;9.30;90.30;;;10.99;58.03;101603.72;3081900;46;20623;-73
2024/01/23 06:46:33;;;;;;;20.07;4.80;;;9.40;90.50;;;10.99;57.79;101613.41;3080346;46;20456;-75
2024/01/23 06:49:01;;;;;;;23.67;4.50;;;9.40;90.80;;;10.98;58.04;101620.50;3081377;46;20580;-74
2024/01/23 06:51:30;;;;;;;19.30;5.20;;;9.40;90.60;;;10.97;58.19;101615.38;3081550;46;21171;-74
2024/01/23 06:53:58;;;;;;;18.80;4.57;;;9.30;90.60;;;10.95;58.30;101620.81;3081673;46;20579;-74
2024/01/23 06:56:29;;;;;;;16.70;4.27;;;9.30;90.70;;;10.92;58.42;101633.44;3081211;46;20544;-74
2024/01/23 06:58:57;;;;;;;22.33;5.23;;;9.30;90.70;;;10.92;58.42;101633.44;3080272;46;20440;-74
2024/01/23 07:01:26;;;;;;;17.77;5.07;;;9.30;90.80;;;10.89;58.68;101630.16;3081611;46;20427;-74
2024/01/23 07:03:55;;;;;;;27.73;5.40;;;9.30;90.90;;;10.89;58.62;101645.94;3081578;46;20434;-74
2024/01/23 07:06:23;;;;;;;16.87;4.70;;;9.30;90.90;;;10.90;58.87;101652.06;3080970;46;20439;-74
2024/01/23 07:08:53;;;;;;;17.50;4.40;;;9.30;90.90;;;10.92;58.78;101654.53;3080919;46;20483;-74
2024/01/23 07:11:21;;;;;;;20.90;5.40;;;9.30;90.90;;;10.93;58.72;101656.19;3081327;46;20431;-74
2024/01/23 07:13:51;;;;;;;23.97;4.83;;;9.30;90.90;;;10.95;58.63;101676.13;3080731;46;20431;-75
2024/01/23 07:16:20;;;;;;;15.20;4.93;;;9.30;91.00;;;10.98;58.87;101670.56;3081634;46;20460;-74
2024/01/23 07:18:48;;;;;;;25.67;5.33;;;9.30;91.10;;;10.98;58.84;101675.00;3081231;46;20493;-75
2024/01/23 07:21:17;;;;;;;23.87;5.40;;;9.30;91.10;;;10.99;58.76;101693.25;3081412;46;20431;-74
2024/01/23 07:23:47;;;;;;;19.73;5.37;;;9.30;91.20;;;11.00;59.03;101699.38;3081357;46;20427;-74
2024/01/23 07:26:15;;;;;;;18.57;5.37;;;9.30;91.30;;;11.00;58.90;101704.63;3080631;46;21005;-74
2024/01/23 07:28:44;;;;;;;26.20;4.70;;;9.30;91.30;;;11.00;59.04;101704.63;3080976;46;20444;-74
2024/01/23 07:31:29;;;;;;;19.37;5.60;;;9.30;91.30;;;10.98;59.23;101722.41;3081723;46;20451;-74
2024/01/23 07:33:58;;;;;;;19.73;5.53;;;9.30;91.40;;;10.97;59.39;101741.81;3081140;46;20438;-74
2024/01/23 07:36:26;;;;;;;21.73;4.93;;;9.30;91.40;;;10.95;59.29;101730.59;3080258;46;20434;-74
2024/01/23 07:38:55;;;;;;;21.47;5.10;;;9.30;91.40;;;10.95;59.28;101746.41;3080971;46;20449;-74
2024/01/23 07:41:23;;;;;;;23.70;5.30;;;9.30;91.50;;;10.93;59.33;101754.47;3080853;46;21140;-75
2024/01/23 07:43:52;;;;;;;22.07;5.13;;;9.30;91.50;;;10.94;59.57;101757.91;3081782;46;20432;-74
2024/01/23 07:46:22;;;;;;;21.20;6.33;;;9.30;91.50;;;10.93;59.63;101756.28;3081186;46;20576;-74
2024/01/23 07:48:51;;;;;;;18.93;5.13;;;9.30;91.60;;;10.95;59.68;101759.56;3080123;46;20514;-74
2024/01/23 07:51:20;;;;;;;26.50;5.77;;;9.30;91.50;;;10.96;59.59;101766.50;3080747;46;20480;-74
2024/01/23 07:53:50;;;;;;;20.07;4.80;;;9.30;91.50;;;10.94;59.47;101771.06;3079440;43;20461;-74
2024/01/23 07:56:19;;;;;;;32.03;6.87;;;9.30;91.50;;;10.94;59.65;101778.97;3080517;46;20428;-74
2024/01/23 07:58:48;;;;;;;21.13;5.17;;;9.30;91.40;;;10.94;59.47;101784.25;3080268;46;20490;-75
2024/01/23 08:01:16;;;;;;;23.40;6.47;;;9.30;91.40;;;10.95;59.58;101791.19;3080569;46;21004;-73
2024/01/23 08:03:45;;;;;;;23.50;6.17;;;9.30;91.40;;;10.96;59.39;101801.56;3080825;46;20514;-74
2024/01/23 08:06:13;;;;;;;24.23;5.87;;;9.30;91.50;;;10.99;59.55;101795.16;3080862;46;20651;-74
2024/01/23 08:08:44;;;;;;;20.87;5.67;;;9.30;91.40;;;11.01;59.27;101807.22;3080150;46;20582;-74
2024/01/23 08:11:12;;;;;;;17.47;5.20;;;9.30;91.40;;;11.03;59.44;101815.78;3081012;46;20452;-74
2024/01/23 08:13:41;;;;;;;19.53;5.40;;;9.30;91.40;;;11.07;59.14;101821.59;3080488;46;21088;-74
2024/01/23 08:16:16;;;;;;;21.40;4.87;;;9.30;91.40;;;11.08;59.24;101821.44;3080547;46;20447;-74
2024/01/23 08:18:44;;;;;;;20.37;5.30;;;9.40;91.40;;;11.13;59.16;101836.78;3079091;46;20465;-75
2024/01/23 08:21:17;;;;;;;15.37;4.60;;;9.40;91.30;;;11.13;59.43;101840.25;3080838;46;20432;-74
2024/01/23 08:23:45;;;;;;;19.70;6.07;;;9.40;91.20;;;11.15;59.08;101850.66;3080543;46;21140;-75
2024/01/23 08:26:13;;;;;;;16.20;6.00;;;9.40;91.20;;;11.17;58.95;101853.97;3080475;46;20453;-74
2024/01/23 08:28:51;;;;;;;23.13;4.97;;;9.50;91.20;;;11.19;58.81;101850.19;3080192;46;20443;-74
2024/01/23 08:31:19;;;;;;;17.00;5.10;;;9.50;91.20;;;11.22;58.85;101860.41;3080605;46;20512;-74
2024/01/23 08:33:47;;;;;;;24.70;6.13;;;9.50;91.20;;;11.25;58.80;101877.75;3080367;46;20444;-74
2024/01/23 08:36:16;;;;;;;22.70;5.50;;;9.50;91.10;;;11.30;58.72;101878.13;3080411;43;20502;-74
2024/01/23 08:38:45;;;;;;;27.27;6.50;;;9.50;91.10;;;11.32;58.56;101884.91;3079776;46;20603;-74
2024/01/23 08:41:13;;;;;;;19.20;5.77;;;9.60;91.00;;;11.35;58.59;101884.59;3080677;46;21029;-74
2024/01/23 08:43:42;;;;;;;28.63;5.83;;;9.60;91.00;;;11.41;58.42;101880.53;3080208;46;20988;-74
2024/01/23 08:46:10;;;;;;;19.90;5.37;;;9.60;90.90;;;11.45;58.32;101903.81;3080760;46;20445;-74
2024/01/23 08:48:39;;;;;;;22.67;6.43;;;9.70;91.00;;;11.49;57.99;101906.97;3081293;46;20439;-75
2024/01/23 08:51:07;;;;;;;23.73;6.20;;;9.70;90.90;;;11.55;58.25;101914.28;3082585;46;20483;-74
2024/01/23 08:53:36;;;;;;;21.83;5.90;;;9.70;90.90;;;11.58;58.04;101911.31;3081963;46;20434;-74
2024/01/23 08:56:05;;;;;;;27.27;5.53;;;9.70;90.90;;;11.62;58.15;101920.59;3081319;43;20449;-74
2024/01/23 08:58:33;;;;;;;27.80;6.47;;;9.80;90.90;;;11.65;57.98;101940.56;3080694;46;20594;-74
2024/01/23 09:01:02;;;;;;;19.33;5.83;;;9.80;90.80;;;11.67;57.98;101938.59;3082168;46;20504;-74
2024/01/23 09:03:31;;;;;;;32.87;7.13;;;9.80;90.70;;;11.68;57.55;101930.56;3081521;46;20447;-77
2024/01/23 09:05:59;;;;;;;31.93;7.27;;;9.90;90.60;;;11.68;57.48;101942.91;3081200;46;20471;-74
2024/01/23 09:08:28;;;;;;;29.23;6.93;;;9.90;90.50;;;11.65;57.53;101925.53;3081581;46;20559;-75
2024/01/23 09:10:57;;;;;;;26.77;6.53;;;9.90;90.50;;;11.64;57.65;101937.09;3081076;46;20548;-74
2024/01/23 09:13:31;;;;;;;21.40;6.63;;;9.90;90.50;;;11.63;57.78;101940.69;3080700;46;21017;-74
2024/01/23 09:16:00;;;;;;;25.90;6.43;;;9.90;90.50;;;11.64;57.78;101957.34;3080796;46;20901;-74
2024/01/23 09:18:28;;;;;;;19.60;6.23;;;9.90;90.40;;;11.65;57.62;101954.56;3080084;43;20450;-74
2024/01/23 09:21:00;;;;;;;27.40;6.80;;;9.90;90.40;;;11.65;57.73;101959.84;3082277;46;20553;-74
2024/01/23 09:23:29;;;;;;;29.80;6.83;;;9.90;90.50;;;11.67;57.54;101957.88;3081129;46;20431;-74
2024/01/23 09:25:58;;;;;;;21.20;6.37;;;9.90;90.50;;;11.69;57.44;101963.88;3080588;46;20537;-74
2024/01/23 09:28:26;;;;;;;23.50;6.20;;;9.90;90.50;;;11.71;57.61;101964.53;3080335;46;20439;-75
2024/01/23 09:30:55;;;;;;;23.80;7.87;;;9.90;90.50;;;11.75;57.59;101984.34;3082216;46;20440;-75
2024/01/23 09:33:23;;;;;;;25.27;6.40;;;10.00;90.00;;;11.76;57.46;101986.03;3082444;46;20439;-74
2024/01/23 09:35:52;;;;;;;21.87;6.40;;;9.90;90.40;;;11.77;57.33;101985.03;3082149;46;20475;-74
2024/01/23 09:38:21;;;;;;;23.10;6.73;;;10.00;89.90;;;11.79;57.15;101983.06;3081594;46;20469;-74
2024/01/23 09:40:51;;;;;;;29.33;5.83;;;10.00;89.70;;;11.83;57.07;101987.06;3082844;46;21048;-75
2024/01/23 09:43:21;;;;;;;26.10;6.90;;;10.00;89.70;;;11.87;57.11;101998.97;3083021;46;20602;-74
2024/01/23 09:45:51;;;;;;;33.40;7.37;;;10.00;89.80;;;11.91;57.23;102002.97;3080590;46;21132;-74
2024/01/23 09:48:20;;;;;;;27.10;6.70;;;10.10;89.80;;;11.89;57.08;102015.47;3081744;46;21115;-75
2024/01/23 09:50:53;;;;;;;22.40;6.93;;;10.10;89.60;;;11.89;56.78;102004.09;3081844;46;21125;-74
2024/01/23 09:53:25;;;;;;;20.17;6.83;;;10.10;89.50;;;11.89;56.82;102020.75;3078926;46;20447;-75
2024/01/23 09:55:54;;;;;;;27.10;7.23;;;10.10;89.40;;;11.90;56.83;102019.78;3079736;46;20435;-74
2024/01/23 09:58:23;;;;;;;21.57;6.70;;;10.10;89.20;;;11.89;56.51;102028.66;3079698;46;20588;-74
2024/01/23 10:00:53;;;;;;;24.47;6.50;;;10.10;88.90;;;11.89;56.73;102028.66;3081303;46;21184;-75
2024/01/23 10:03:22;;;;;;;30.47;7.67;;;10.10;89.00;;;11.90;56.83;102043.53;3080673;43;20424;-74
2024/01/23 10:05:51;;;;;;;24.40;6.60;;;10.10;89.00;;;11.89;56.44;102047.13;3081337;46;20435;-74
2024/01/23 10:08:22;;;;;;;25.80;6.07;;;10.10;88.60;;;11.90;56.81;102053.25;3080740;46;20584;-74
2024/01/23 10:11:01;;;;;;;23.07;6.43;;;10.20;88.90;;;11.90;56.51;102048.81;3081563;46;20428;-74
2024/01/23 10:13:30;;;;;;;21.90;5.67;;;10.10;88.90;;;11.97;56.87;102055.13;3080393;46;20591;-74
2024/01/23 10:15:58;;;;;;;19.50;6.73;;;10.20;88.90;;;12.01;56.10;102058.28;3081913;46;20545;-74
2024/01/23 10:18:27;;;;;;;24.43;6.90;;;10.20;88.40;;;12.02;56.13;102058.16;3080835;46;21087;-74